sensor_id;sensor_type;location;lat;lon;timestamp;pressure;altitude;pressure_sealevel;temperature;humidity
43125;BME280;49182;50.788;7.318;2023-01-26T00:00:56;101774.13;;;0.31;89.32
43125;BME280;49182;50.788;7.318;2023-01-26T00:03:23;101773.41;;;0.26;89.80
43125;BME280;49182;50.788;7.318;2023-01-26T00:05:49;101771.03;;;0.18;89.80
43125;BME280;49182;50.788;7.318;2023-01-26T00:08:16;101768.19;;;0.26;89.51
43125;BME280;49182;50.788;7.318;2023-01-26T00:10:42;101767.19;;;0.31;89.62
43125;BME280;49182;50.788;7.318;2023-01-26T00:13:10;101766.28;;;0.32;88.57
43125;BME280;49182;50.788;7.318;2023-01-26T00:15:37;101727.97;;;0.10;88.69
43125;BME280;49182;50.788;7.318;2023-01-26T00:18:03;101761.94;;;0.33;88.20
43125;BME280;49182;50.788;7.318;2023-01-26T00:20:30;101750.88;;;0.26;88.75
43125;BME280;49182;50.788;7.318;2023-01-26T00:22:56;101744.97;;;0.21;88.86
43125;BME280;49182;50.788;7.318;2023-01-26T00:25:23;101742.41;;;0.20;88.28
43125;BME280;49182;50.788;7.318;2023-01-26T00:27:50;101741.59;;;0.18;88.91
43125;BME280;49182;50.788;7.318;2023-01-26T00:30:18;101700.63;;;-0.04;88.94
43125;BME280;49182;50.788;7.318;2023-01-26T00:32:45;101735.72;;;0.11;89.10
43125;BME280;49182;50.788;7.318;2023-01-26T00:35:11;101744.44;;;0.09;89.03
43125;BME280;49182;50.788;7.318;2023-01-26T00:37:40;101730.63;;;0.07;89.04
43125;BME280;49182;50.788;7.318;2023-01-26T00:40:07;101742.66;;;0.11;89.17
43125;BME280;49182;50.788;7.318;2023-01-26T00:42:35;101736.63;;;0.09;89.55
43125;BME280;49182;50.788;7.318;2023-01-26T00:45:02;101739.41;;;0.03;89.90
43125;BME280;49182;50.788;7.318;2023-01-26T00:47:30;101740.34;;;0.00;89.62
43125;BME280;49182;50.788;7.318;2023-01-26T00:49:57;101739.50;;;-0.01;89.73
43125;BME280;49182;50.788;7.318;2023-01-26T00:52:27;101735.91;;;0.04;89.96
43125;BME280;49182;50.788;7.318;2023-01-26T00:54:55;101730.78;;;0.00;89.46
43125;BME280;49182;50.788;7.318;2023-01-26T00:57:22;101738.63;;;-0.01;89.79
43125;BME280;49182;50.788;7.318;2023-01-26T00:59:49;101736.94;;;-0.02;90.15
43125;BME280;49182;50.788;7.318;2023-01-26T01:02:15;101722.47;;;-0.12;89.91
43125;BME280;49182;50.788;7.318;2023-01-26T01:04:43;101733.69;;;-0.12;89.67
43125;BME280;49182;50.788;7.318;2023-01-26T01:07:10;101729.50;;;-0.16;90.23
43125;BME280;49182;50.788;7.318;2023-01-26T01:09:36;101727.56;;;-0.08;89.31
43125;BME280;49182;50.788;7.318;2023-01-26T01:12:04;101730.00;;;-0.02;89.14
43125;BME280;49182;50.788;7.318;2023-01-26T01:14:31;101734.38;;;-0.04;88.78
43125;BME280;49182;50.788;7.318;2023-01-26T01:16:57;101720.63;;;-0.07;89.40
43125;BME280;49182;50.788;7.318;2023-01-26T01:19:24;101696.63;;;-0.17;89.02
43125;BME280;49182;50.788;7.318;2023-01-26T01:21:52;101723.97;;;-0.04;88.75
43125;BME280;49182;50.788;7.318;2023-01-26T01:24:19;101717.09;;;-0.05;89.26
43125;BME280;49182;50.788;7.318;2023-01-26T01:26:46;101719.66;;;-0.03;89.32
43125;BME280;49182;50.788;7.318;2023-01-26T01:29:13;101711.88;;;-0.05;88.94
43125;BME280;49182;50.788;7.318;2023-01-26T01:31:39;101713.41;;;0.04;88.97
43125;BME280;49182;50.788;7.318;2023-01-26T01:34:06;101716.97;;;0.00;88.98
43125;BME280;49182;50.788;7.318;2023-01-26T01:36:33;101715.22;;;0.00;88.57
43125;BME280;49182;50.788;7.318;2023-01-26T01:39:01;101716.00;;;0.04;88.48
43125;BME280;49182;50.788;7.318;2023-01-26T01:41:28;101705.69;;;0.01;88.67
43125;BME280;49182;50.788;7.318;2023-01-26T01:44:10;101712.59;;;0.02;88.89
43125;BME280;49182;50.788;7.318;2023-01-26T01:46:38;101699.69;;;-0.01;88.79
43125;BME280;49182;50.788;7.318;2023-01-26T01:49:12;101707.22;;;0.08;87.73
43125;BME280;49182;50.788;7.318;2023-01-26T01:51:43;101656.28;;;-0.28;88.58
43125;BME280;49182;50.788;7.318;2023-01-26T01:54:14;101674.22;;;-0.19;89.23
43125;BME280;49182;50.788;7.318;2023-01-26T01:56:47;101686.06;;;-0.09;89.54
43125;BME280;49182;50.788;7.318;2023-01-26T01:59:16;101685.25;;;-0.11;87.94
43125;BME280;49182;50.788;7.318;2023-01-26T02:01:44;101683.84;;;-0.24;88.57
43125;BME280;49182;50.788;7.318;2023-01-26T02:04:11;101688.47;;;-0.35;89.04
43125;BME280;49182;50.788;7.318;2023-01-26T02:06:42;101681.69;;;-0.41;88.11
43125;BME280;49182;50.788;7.318;2023-01-26T02:09:13;101682.69;;;-0.45;88.93
43125;BME280;49182;50.788;7.318;2023-01-26T02:11:42;101674.81;;;-0.42;88.10
43125;BME280;49182;50.788;7.318;2023-01-26T02:14:11;101679.09;;;-0.41;88.15
43125;BME280;49182;50.788;7.318;2023-01-26T02:16:39;101681.88;;;-0.49;88.50
43125;BME280;49182;50.788;7.318;2023-01-26T02:19:12;101672.44;;;-0.50;88.97
43125;BME280;49182;50.788;7.318;2023-01-26T02:21:42;101673.91;;;-0.41;88.09
43125;BME280;49182;50.788;7.318;2023-01-26T02:24:17;101660.38;;;-0.52;88.15
43125;BME280;49182;50.788;7.318;2023-01-26T02:26:49;101663.66;;;-0.46;88.08
43125;BME280;49182;50.788;7.318;2023-01-26T02:29:17;101659.25;;;-0.42;88.36
43125;BME280;49182;50.788;7.318;2023-01-26T02:31:44;101658.28;;;-0.38;88.69
43125;BME280;49182;50.788;7.318;2023-01-26T02:34:11;101657.34;;;-0.35;88.64
43125;BME280;49182;50.788;7.318;2023-01-26T02:36:38;101656.44;;;-0.34;88.58
43125;BME280;49182;50.788;7.318;2023-01-26T02:39:20;101636.53;;;-0.32;88.70
43125;BME280;49182;50.788;7.318;2023-01-26T02:41:49;101646.00;;;-0.31;89.35
43125;BME280;49182;50.788;7.318;2023-01-26T02:44:18;101652.84;;;-0.29;89.01
43125;BME280;49182;50.788;7.318;2023-01-26T02:46:45;101647.59;;;-0.26;88.68
43125;BME280;49182;50.788;7.318;2023-01-26T02:49:14;101601.47;;;-0.49;88.74
43125;BME280;49182;50.788;7.318;2023-01-26T02:51:40;101646.63;;;-0.23;88.62
43125;BME280;49182;50.788;7.318;2023-01-26T02:54:07;101643.47;;;-0.34;89.38
43125;BME280;49182;50.788;7.318;2023-01-26T02:56:33;101640.81;;;-0.31;88.96
43125;BME280;49182;50.788;7.318;2023-01-26T02:59:01;101639.09;;;-0.31;89.32
43125;BME280;49182;50.788;7.318;2023-01-26T03:01:28;101647.75;;;-0.32;89.39
43125;BME280;49182;50.788;7.318;2023-01-26T03:03:58;101640.97;;;-0.37;89.38
43125;BME280;49182;50.788;7.318;2023-01-26T03:06:24;101635.84;;;-0.41;89.27
43125;BME280;49182;50.788;7.318;2023-01-26T03:08:51;101638.31;;;-0.36;88.74
43125;BME280;49182;50.788;7.318;2023-01-26T03:11:21;101634.81;;;-0.33;88.72
43125;BME280;49182;50.788;7.318;2023-01-26T03:13:47;101633.97;;;-0.34;89.25
43125;BME280;49182;50.788;7.318;2023-01-26T03:16:17;101593.81;;;-0.53;88.72
43125;BME280;49182;50.788;7.318;2023-01-26T03:18:43;101621.84;;;-0.33;89.26
43125;BME280;49182;50.788;7.318;2023-01-26T03:21:12;101626.91;;;-0.29;89.01
43125;BME280;49182;50.788;7.318;2023-01-26T03:23:39;101618.22;;;-0.28;88.72
43125;BME280;49182;50.788;7.318;2023-01-26T03:26:08;101620.13;;;-0.34;88.88
43125;BME280;49182;50.788;7.318;2023-01-26T03:28:34;101624.75;;;-0.46;89.14
43125;BME280;49182;50.788;7.318;2023-01-26T03:31:05;101623.66;;;-0.37;88.32
43125;BME280;49182;50.788;7.318;2023-01-26T03:33:33;101624.41;;;-0.32;87.60
43125;BME280;49182;50.788;7.318;2023-01-26T03:36:00;101614.44;;;-0.49;89.28
43125;BME280;49182;50.788;7.318;2023-01-26T03:38:28;101612.44;;;-0.37;88.35
43125;BME280;49182;50.788;7.318;2023-01-26T03:40:56;101605.50;;;-0.37;88.64
43125;BME280;49182;50.788;7.318;2023-01-26T03:43:23;101610.75;;;-0.38;88.49
43125;BME280;49182;50.788;7.318;2023-01-26T03:45:50;101604.50;;;-0.31;88.08
43125;BME280;49182;50.788;7.318;2023-01-26T03:48:19;101607.19;;;-0.36;88.19
43125;BME280;49182;50.788;7.318;2023-01-26T03:50:46;101592.41;;;-0.32;88.74
43125;BME280;49182;50.788;7.318;2023-01-26T03:53:15;101594.19;;;-0.34;88.62
43125;BME280;49182;50.788;7.318;2023-01-26T03:55:42;101598.41;;;-0.30;88.42
43125;BME280;49182;50.788;7.318;2023-01-26T03:58:10;101604.44;;;-0.30;88.34
43125;BME280;49182;50.788;7.318;2023-01-26T04:00:37;101597.44;;;-0.26;88.44
43125;BME280;49182;50.788;7.318;2023-01-26T04:03:04;101604.50;;;-0.31;88.28
43125;BME280;49182;50.788;7.318;2023-01-26T04:05:30;101593.31;;;-0.33;88.79
43125;BME280;49182;50.788;7.318;2023-01-26T04:08:05;101597.66;;;-0.35;89.70
43125;BME280;49182;50.788;7.318;2023-01-26T04:10:32;101592.38;;;-0.31;88.98
43125;BME280;49182;50.788;7.318;2023-01-26T04:13:02;101603.53;;;-0.27;88.87
43125;BME280;49182;50.788;7.318;2023-01-26T04:15:29;101606.97;;;-0.27;89.21
43125;BME280;49182;50.788;7.318;2023-01-26T04:17:55;101607.81;;;-0.26;89.37
43125;BME280;49182;50.788;7.318;2023-01-26T04:20:22;101567.75;;;-0.49;89.64
43125;BME280;49182;50.788;7.318;2023-01-26T04:22:49;101600.81;;;-0.24;89.01
43125;BME280;49182;50.788;7.318;2023-01-26T04:25:19;101600.03;;;-0.26;89.38
43125;BME280;49182;50.788;7.318;2023-01-26T04:27:46;101594.81;;;-0.25;89.12
43125;BME280;49182;50.788;7.318;2023-01-26T04:30:15;101597.31;;;-0.22;89.13
43125;BME280;49182;50.788;7.318;2023-01-26T04:32:42;101577.88;;;-0.38;89.15
43125;BME280;49182;50.788;7.318;2023-01-26T04:35:09;101604.25;;;-0.22;89.93
43125;BME280;49182;50.788;7.318;2023-01-26T04:37:36;101596.41;;;-0.21;89.88
43125;BME280;49182;50.788;7.318;2023-01-26T04:40:04;101586.00;;;-0.19;89.68
43125;BME280;49182;50.788;7.318;2023-01-26T04:42:34;101585.03;;;-0.15;89.32
43125;BME280;49182;50.788;7.318;2023-01-26T04:45:03;101585.03;;;-0.15;89.27
43125;BME280;49182;50.788;7.318;2023-01-26T04:47:30;101590.94;;;-0.10;89.09
43125;BME280;49182;50.788;7.318;2023-01-26T04:49:57;101581.56;;;-0.16;88.95
43125;BME280;49182;50.788;7.318;2023-01-26T04:52:24;101567.16;;;-0.26;89.51
43125;BME280;49182;50.788;7.318;2023-01-26T04:54:50;101585.78;;;-0.12;89.64
43125;BME280;49182;50.788;7.318;2023-01-26T04:57:17;101585.72;;;-0.10;89.99
43125;BME280;49182;50.788;7.318;2023-01-26T04:59:48;101589.16;;;-0.08;89.93
43125;BME280;49182;50.788;7.318;2023-01-26T05:02:17;101592.59;;;-0.08;89.58
43125;BME280;49182;50.788;7.318;2023-01-26T05:04:44;101589.13;;;-0.07;90.03
43125;BME280;49182;50.788;7.318;2023-01-26T05:07:11;101577.75;;;-0.03;89.45
43125;BME280;49182;50.788;7.318;2023-01-26T05:09:38;101567.41;;;-0.04;89.63
43125;BME280;49182;50.788;7.318;2023-01-26T05:12:27;101576.13;;;-0.07;89.67
43125;BME280;49182;50.788;7.318;2023-01-26T05:15:21;101571.69;;;-0.03;90.05
43125;BME280;49182;50.788;7.318;2023-01-26T05:17:58;101576.88;;;-0.03;89.77
43125;BME280;49182;50.788;7.318;2023-01-26T05:20:38;101572.19;;;-0.20;90.25
43125;BME280;49182;50.788;7.318;2023-01-26T05:23:14;101574.66;;;-0.17;90.91
43125;BME280;49182;50.788;7.318;2023-01-26T05:25:59;101575.53;;;-0.16;90.71
43125;BME280;49182;50.788;7.318;2023-01-26T05:28:27;101575.69;;;-0.22;90.93
43125;BME280;49182;50.788;7.318;2023-01-26T05:30:55;101574.16;;;-0.29;91.09
43125;BME280;49182;50.788;7.318;2023-01-26T05:33:22;101580.41;;;-0.36;91.46
43125;BME280;49182;50.788;7.318;2023-01-26T05:35:49;101586.69;;;-0.45;91.41
43125;BME280;49182;50.788;7.318;2023-01-26T05:38:16;101588.28;;;-0.39;91.76
43125;BME280;49182;50.788;7.318;2023-01-26T05:40:44;101589.88;;;-0.35;91.48
43125;BME280;49182;50.788;7.318;2023-01-26T05:43:11;101593.34;;;-0.35;92.03
43125;BME280;49182;50.788;7.318;2023-01-26T05:45:55;101589.34;;;-0.47;92.50
43125;BME280;49182;50.788;7.318;2023-01-26T05:48:22;101591.69;;;-0.37;92.03
43125;BME280;49182;50.788;7.318;2023-01-26T05:50:50;101603.72;;;-0.35;92.05
43125;BME280;49182;50.788;7.318;2023-01-26T05:53:20;101597.72;;;-0.37;91.59
43125;BME280;49182;50.788;7.318;2023-01-26T05:55:47;101607.09;;;-0.31;91.54
43125;BME280;49182;50.788;7.318;2023-01-26T05:58:16;101593.59;;;-0.44;92.06
43125;BME280;49182;50.788;7.318;2023-01-26T06:00:43;101599.38;;;-0.34;92.26
43125;BME280;49182;50.788;7.318;2023-01-26T06:03:19;101599.25;;;-0.30;92.29
43125;BME280;49182;50.788;7.318;2023-01-26T06:05:51;101582.03;;;-0.32;91.66
43125;BME280;49182;50.788;7.318;2023-01-26T06:08:26;101600.16;;;-0.31;92.29
43125;BME280;49182;50.788;7.318;2023-01-26T06:11:11;101602.97;;;-0.38;91.95
43125;BME280;49182;50.788;7.318;2023-01-26T06:13:58;101594.28;;;-0.37;92.04
43125;BME280;49182;50.788;7.318;2023-01-26T06:16:27;101601.94;;;-0.33;92.24
43125;BME280;49182;50.788;7.318;2023-01-26T06:18:55;101590.78;;;-0.36;91.99
43125;BME280;49182;50.788;7.318;2023-01-26T06:21:22;101598.50;;;-0.33;92.22
43125;BME280;49182;50.788;7.318;2023-01-26T06:23:49;101601.22;;;-0.38;92.19
43125;BME280;49182;50.788;7.318;2023-01-26T06:26:16;101608.09;;;-0.37;92.48
43125;BME280;49182;50.788;7.318;2023-01-26T06:28:43;101603.81;;;-0.38;92.57
43125;BME280;49182;50.788;7.318;2023-01-26T06:31:10;101614.88;;;-0.31;92.04
43125;BME280;49182;50.788;7.318;2023-01-26T06:33:38;101613.53;;;-0.46;92.81
43125;BME280;49182;50.788;7.318;2023-01-26T06:36:10;101607.28;;;-0.39;92.03
43125;BME280;49182;50.788;7.318;2023-01-26T06:38:38;101602.13;;;-0.41;91.98
43125;BME280;49182;50.788;7.318;2023-01-26T06:41:06;101614.81;;;-0.30;91.92
43125;BME280;49182;50.788;7.318;2023-01-26T06:43:35;101602.31;;;-0.47;92.14
43125;BME280;49182;50.788;7.318;2023-01-26T06:46:02;101615.03;;;-0.37;91.93
43125;BME280;49182;50.788;7.318;2023-01-26T06:48:32;101616.97;;;-0.46;93.12
43125;BME280;49182;50.788;7.318;2023-01-26T06:51:04;101624.03;;;-0.51;92.34
43125;BME280;49182;50.788;7.318;2023-01-26T06:53:36;101623.25;;;-0.54;93.10
43125;BME280;49182;50.788;7.318;2023-01-26T06:56:36;101616.31;;;-0.54;91.98
43125;BME280;49182;50.788;7.318;2023-01-26T06:59:21;101618.75;;;-0.48;92.58
43125;BME280;49182;50.788;7.318;2023-01-26T07:02:15;101609.41;;;-0.55;92.17
43125;BME280;49182;50.788;7.318;2023-01-26T07:04:42;101628.34;;;-0.50;92.30
43125;BME280;49182;50.788;7.318;2023-01-26T07:07:08;101623.34;;;-0.57;92.91
43125;BME280;49182;50.788;7.318;2023-01-26T07:09:36;101618.75;;;-0.48;92.73
43125;BME280;49182;50.788;7.318;2023-01-26T07:12:03;101629.94;;;-0.46;92.55
43125;BME280;49182;50.788;7.318;2023-01-26T07:14:30;101628.25;;;-0.47;92.58
43125;BME280;49182;50.788;7.318;2023-01-26T07:16:57;101636.16;;;-0.51;92.86
43125;BME280;49182;50.788;7.318;2023-01-26T07:19:23;101641.63;;;-0.63;93.10
43125;BME280;49182;50.788;7.318;2023-01-26T07:21:50;101646.56;;;-0.54;93.18
43125;BME280;49182;50.788;7.318;2023-01-26T07:24:17;101595.28;;;-0.75;92.51
43125;BME280;49182;50.788;7.318;2023-01-26T07:26:44;101642.09;;;-0.48;92.08
43125;BME280;49182;50.788;7.318;2023-01-26T07:29:11;101635.31;;;-0.53;92.43
43125;BME280;49182;50.788;7.318;2023-01-26T07:31:38;101640.69;;;-0.61;92.83
43125;BME280;49182;50.788;7.318;2023-01-26T07:34:05;101644.84;;;-0.54;93.06
43125;BME280;49182;50.788;7.318;2023-01-26T07:36:31;101637.75;;;-0.47;93.33
43125;BME280;49182;50.788;7.318;2023-01-26T07:38:58;101634.94;;;-0.38;92.12
43125;BME280;49182;50.788;7.318;2023-01-26T07:41:24;101635.88;;;-0.42;92.63
43125;BME280;49182;50.788;7.318;2023-01-26T07:43:53;101636.59;;;-0.35;92.62
43125;BME280;49182;50.788;7.318;2023-01-26T07:46:19;101645.19;;;-0.33;92.50
43125;BME280;49182;50.788;7.318;2023-01-26T07:48:46;101641.03;;;-0.41;92.83
43125;BME280;49182;50.788;7.318;2023-01-26T07:51:13;101641.88;;;-0.38;93.29
43125;BME280;49182;50.788;7.318;2023-01-26T07:53:39;101639.44;;;-0.45;93.37
43125;BME280;49182;50.788;7.318;2023-01-26T07:56:08;101638.44;;;-0.41;93.42
43125;BME280;49182;50.788;7.318;2023-01-26T07:58:35;101618.72;;;-0.46;92.90
43125;BME280;49182;50.788;7.318;2023-01-26T08:01:08;101632.25;;;-0.35;93.50
43125;BME280;49182;50.788;7.318;2023-01-26T08:03:35;101632.13;;;-0.30;93.41
43125;BME280;49182;50.788;7.318;2023-01-26T08:06:02;101635.50;;;-0.27;92.73
43125;BME280;49182;50.788;7.318;2023-01-26T08:08:28;101631.94;;;-0.23;92.55
43125;BME280;49182;50.788;7.318;2023-01-26T08:10:56;101630.13;;;-0.19;92.69
43125;BME280;49182;50.788;7.318;2023-01-26T08:13:23;101607.00;;;-0.28;92.52
43125;BME280;49182;50.788;7.318;2023-01-26T08:16:01;101603.69;;;-0.33;93.01
43125;BME280;49182;50.788;7.318;2023-01-26T08:18:30;101625.00;;;-0.22;93.11
43125;BME280;49182;50.788;7.318;2023-01-26T08:20:58;101625.72;;;-0.17;93.19
43125;BME280;49182;50.788;7.318;2023-01-26T08:23:25;101638.50;;;-0.10;92.54
43125;BME280;49182;50.788;7.318;2023-01-26T08:25:52;101640.16;;;-0.07;92.32
43125;BME280;49182;50.788;7.318;2023-01-26T08:28:18;101638.34;;;-0.05;91.99
43125;BME280;49182;50.788;7.318;2023-01-26T08:30:46;101635.84;;;-0.07;92.70
43125;BME280;49182;50.788;7.318;2023-01-26T08:33:13;101637.50;;;-0.06;92.37
43125;BME280;49182;50.788;7.318;2023-01-26T08:35:41;101645.28;;;-0.06;91.97
43125;BME280;49182;50.788;7.318;2023-01-26T08:38:08;101648.19;;;-0.16;92.48
43125;BME280;49182;50.788;7.318;2023-01-26T08:40:34;101648.31;;;-0.21;92.64
43125;BME280;49182;50.788;7.318;2023-01-26T08:43:01;101654.34;;;-0.20;92.71
43125;BME280;49182;50.788;7.318;2023-01-26T08:45:29;101649.94;;;-0.17;92.67
43125;BME280;49182;50.788;7.318;2023-01-26T08:47:59;101650.63;;;-0.10;92.48
43125;BME280;49182;50.788;7.318;2023-01-26T08:50:25;101657.75;;;-0.18;92.75
43125;BME280;49182;50.788;7.318;2023-01-26T08:52:55;101645.19;;;-0.33;92.86
43125;BME280;49182;50.788;7.318;2023-01-26T08:55:21;101668.22;;;-0.21;92.86
43125;BME280;49182;50.788;7.318;2023-01-26T08:57:51;101660.28;;;-0.15;92.25
43125;BME280;49182;50.788;7.318;2023-01-26T09:00:18;101658.41;;;-0.10;92.48
43125;BME280;49182;50.788;7.318;2023-01-26T09:02:45;101658.44;;;-0.12;92.35
43125;BME280;49182;50.788;7.318;2023-01-26T09:05:12;101635.50;;;-0.27;92.18
43125;BME280;49182;50.788;7.318;2023-01-26T09:07:38;101649.78;;;-0.12;92.41
43125;BME280;49182;50.788;7.318;2023-01-26T09:10:08;101642.97;;;-0.15;92.91
43125;BME280;49182;50.788;7.318;2023-01-26T09:12:35;101645.34;;;-0.07;92.53
43125;BME280;49182;50.788;7.318;2023-01-26T09:15:02;101655.59;;;-0.03;92.22
43125;BME280;49182;50.788;7.318;2023-01-26T09:17:29;101662.41;;;0.02;91.90
43125;BME280;49182;50.788;7.318;2023-01-26T09:19:55;101647.94;;;-0.07;92.62
43125;BME280;49182;50.788;7.318;2023-01-26T09:22:22;101656.53;;;-0.05;92.58
43125;BME280;49182;50.788;7.318;2023-01-26T09:24:49;101667.72;;;-0.03;92.48
43125;BME280;49182;50.788;7.318;2023-01-26T09:27:16;101675.47;;;-0.02;92.33
43125;BME280;49182;50.788;7.318;2023-01-26T09:29:43;101672.78;;;0.02;92.05
43125;BME280;49182;50.788;7.318;2023-01-26T09:32:10;101679.66;;;0.04;92.64
43125;BME280;49182;50.788;7.318;2023-01-26T09:34:36;101675.28;;;0.06;92.00
43125;BME280;49182;50.788;7.318;2023-01-26T09:37:05;101666.69;;;0.04;92.10
43125;BME280;49182;50.788;7.318;2023-01-26T09:39:32;101656.53;;;-0.05;92.09
43125;BME280;49182;50.788;7.318;2023-01-26T09:42:05;101654.75;;;-0.03;91.96
43125;BME280;49182;50.788;7.318;2023-01-26T09:44:44;101676.91;;;0.10;91.90
43125;BME280;49182;50.788;7.318;2023-01-26T09:47:18;101658.16;;;-0.01;92.31
43125;BME280;49182;50.788;7.318;2023-01-26T09:49:48;101676.84;;;0.12;92.04
43125;BME280;49182;50.788;7.318;2023-01-26T09:52:22;101684.53;;;0.15;92.30
43125;BME280;49182;50.788;7.318;2023-01-26T09:54:52;101684.50;;;0.16;92.32
43125;BME280;49182;50.788;7.318;2023-01-26T09:57:24;101686.25;;;0.16;92.13
43125;BME280;49182;50.788;7.318;2023-01-26T09:59:57;101661.81;;;-0.08;92.71
43125;BME280;49182;50.788;7.318;2023-01-26T10:02:33;101683.09;;;0.05;92.97
43125;BME280;49182;50.788;7.318;2023-01-26T10:05:07;101688.19;;;0.08;92.66
43125;BME280;49182;50.788;7.318;2023-01-26T10:07:41;101656.63;;;-0.08;92.61
43125;BME280;49182;50.788;7.318;2023-01-26T10:10:14;101683.66;;;0.16;92.72
43125;BME280;49182;50.788;7.318;2023-01-26T10:12:41;101668.13;;;0.14;92.91
43125;BME280;49182;50.788;7.318;2023-01-26T10:15:20;101669.53;;;0.26;92.33
43125;BME280;49182;50.788;7.318;2023-01-26T10:17:49;101658.94;;;0.03;92.93
43125;BME280;49182;50.788;7.318;2023-01-26T10:20:26;101671.53;;;0.16;92.68
43125;BME280;49182;50.788;7.318;2023-01-26T10:22:55;101622.97;;;-0.11;92.92
43125;BME280;49182;50.788;7.318;2023-01-26T10:25:29;101666.31;;;0.18;92.58
43125;BME280;49182;50.788;7.318;2023-01-26T10:27:58;101656.94;;;0.12;93.15
43125;BME280;49182;50.788;7.318;2023-01-26T10:30:27;101622.06;;;-0.10;93.15
43125;BME280;49182;50.788;7.318;2023-01-26T10:32:54;101649.03;;;0.17;92.77
43125;BME280;49182;50.788;7.318;2023-01-26T10:35:23;101649.69;;;0.23;92.82
43125;BME280;49182;50.788;7.318;2023-01-26T10:37:51;101639.53;;;0.16;92.96
43125;BME280;49182;50.788;7.318;2023-01-26T10:40:18;101643.72;;;0.20;93.29
43125;BME280;49182;50.788;7.318;2023-01-26T10:42:54;101643.78;;;0.18;93.34
43125;BME280;49182;50.788;7.318;2023-01-26T10:45:27;101637.44;;;0.28;92.75
43125;BME280;49182;50.788;7.318;2023-01-26T10:48:03;101636.63;;;0.26;92.97
43125;BME280;49182;50.788;7.318;2023-01-26T10:50:30;101647.09;;;0.23;92.95
43125;BME280;49182;50.788;7.318;2023-01-26T10:52:58;101646.22;;;0.24;93.37
43125;BME280;49182;50.788;7.318;2023-01-26T10:55:25;101626.44;;;0.19;92.96
43125;BME280;49182;50.788;7.318;2023-01-26T10:57:52;101623.72;;;0.23;93.03
43125;BME280;49182;50.788;7.318;2023-01-26T11:00:23;101631.91;;;0.39;92.86
43125;BME280;49182;50.788;7.318;2023-01-26T11:02:53;101616.63;;;0.30;92.84
43125;BME280;49182;50.788;7.318;2023-01-26T11:05:22;101633.47;;;0.45;92.54
43125;BME280;49182;50.788;7.318;2023-01-26T11:07:50;101628.16;;;0.49;92.59
43125;BME280;49182;50.788;7.318;2023-01-26T11:10:20;101623.63;;;0.56;92.95
43125;BME280;49182;50.788;7.318;2023-01-26T11:12:48;101618.50;;;0.54;92.96
43125;BME280;49182;50.788;7.318;2023-01-26T11:15:17;101613.22;;;0.56;92.96
43125;BME280;49182;50.788;7.318;2023-01-26T11:17:49;101611.38;;;0.61;92.87
43125;BME280;49182;50.788;7.318;2023-01-26T11:20:48;101608.66;;;0.64;92.83
43125;BME280;49182;50.788;7.318;2023-01-26T11:23:26;101609.53;;;0.63;92.53
43125;BME280;49182;50.788;7.318;2023-01-26T11:29:10;101607.84;;;0.62;92.84
43125;BME280;49182;50.788;7.318;2023-01-26T11:31:46;101598.41;;;0.59;92.73
43125;BME280;49182;50.788;7.318;2023-01-26T11:34:26;101602.59;;;0.63;92.85
43125;BME280;49182;50.788;7.318;2023-01-26T11:37:12;101590.69;;;0.56;92.86
43125;BME280;49182;50.788;7.318;2023-01-26T11:39:50;101599.22;;;0.61;92.84
43125;BME280;49182;50.788;7.318;2023-01-26T11:42:25;101598.63;;;0.52;92.87
43125;BME280;49182;50.788;7.318;2023-01-26T11:45:02;101588.94;;;0.57;93.00
43125;BME280;49182;50.788;7.318;2023-01-26T11:47:40;101593.97;;;0.63;93.16
43125;BME280;49182;50.788;7.318;2023-01-26T11:50:21;101570.91;;;0.52;92.52
43125;BME280;49182;50.788;7.318;2023-01-26T11:53:11;101587.16;;;0.59;93.59
43125;BME280;49182;50.788;7.318;2023-01-26T11:55:49;101594.16;;;0.57;93.54
43125;BME280;49182;50.788;7.318;2023-01-26T11:58:27;101586.97;;;0.65;93.57
43125;BME280;49182;50.788;7.318;2023-01-26T12:00:58;101587.78;;;0.67;93.37
43125;BME280;49182;50.788;7.318;2023-01-26T12:03:30;101578.91;;;0.74;93.00
43125;BME280;49182;50.788;7.318;2023-01-26T12:06:05;101582.41;;;0.73;92.79
43125;BME280;49182;50.788;7.318;2023-01-26T12:08:38;101572.09;;;0.70;92.75
43125;BME280;49182;50.788;7.318;2023-01-26T12:11:08;101568.59;;;0.71;92.79
43125;BME280;49182;50.788;7.318;2023-01-26T12:13:41;101563.53;;;0.66;92.49
43125;BME280;49182;50.788;7.318;2023-01-26T12:16:15;101554.72;;;0.72;93.23
43125;BME280;49182;50.788;7.318;2023-01-26T12:18:50;101559.97;;;0.69;92.86
43125;BME280;49182;50.788;7.318;2023-01-26T12:21:37;101567.03;;;0.65;92.90
43125;BME280;49182;50.788;7.318;2023-01-26T12:24:13;101556.69;;;0.64;92.67
43125;BME280;49182;50.788;7.318;2023-01-26T12:27:04;101554.56;;;0.76;92.64
43125;BME280;49182;50.788;7.318;2023-01-26T12:29:39;101548.31;;;0.82;92.76
43125;BME280;49182;50.788;7.318;2023-01-26T12:32:10;101547.16;;;0.91;92.54
43125;BME280;49182;50.788;7.318;2023-01-26T12:34:37;101535.91;;;0.90;92.52
43125;BME280;49182;50.788;7.318;2023-01-26T12:37:24;101544.00;;;0.81;92.68
43125;BME280;49182;50.788;7.318;2023-01-26T12:40:04;101544.81;;;0.83;92.14
43125;BME280;49182;50.788;7.318;2023-01-26T12:42:42;101543.50;;;0.70;92.81
43125;BME280;49182;50.788;7.318;2023-01-26T12:45:15;101536.56;;;0.70;93.10
43125;BME280;49182;50.788;7.318;2023-01-26T12:47:47;101534.00;;;0.69;93.77
43125;BME280;49182;50.788;7.318;2023-01-26T12:50:24;101535.81;;;0.67;93.52
43125;BME280;49182;50.788;7.318;2023-01-26T12:52:55;101533.81;;;0.75;93.72
43125;BME280;49182;50.788;7.318;2023-01-26T12:55:28;101512.22;;;0.73;93.39
43125;BME280;49182;50.788;7.318;2023-01-26T12:57:59;101533.34;;;0.89;93.38
43125;BME280;49182;50.788;7.318;2023-01-26T13:00:29;101518.81;;;0.83;93.35
43125;BME280;49182;50.788;7.318;2023-01-26T13:03:00;101520.59;;;0.81;93.53
43125;BME280;49182;50.788;7.318;2023-01-26T13:05:30;101510.13;;;0.84;93.59
43125;BME280;49182;50.788;7.318;2023-01-26T13:07:58;101519.31;;;0.94;93.61
43125;BME280;49182;50.788;7.318;2023-01-26T13:10:47;101517.41;;;0.99;93.68